Time;durP1;ratioP1;P1;durP2;ratioP2;P2;SDS_P1;SDS_P2;PMS_P1;PMS_P2;Temp;Humidity;BMP_temperature;BMP_pressure;BME280_temperature;BME280_humidity;BME280_pressure;Samples;Min_cycle;Max_cycle;Signal;HPM_P1;HPM_P2
2021/06/29 00:00:22;;;;;;;5.60;2.05;;;25.40;93.60;;;;;;5011245;28;20113;-77
2021/06/29 00:03:00;;;;;;;8.10;2.40;;;25.30;93.40;;;;;;5011921;28;20462;-78
2021/06/29 00:05:26;;;;;;;3.45;2.10;;;25.30;93.10;;;;;;5008122;28;20471;-78
2021/06/29 00:07:51;;;;;;;5.38;2.17;;;25.30;93.20;;;;;;4996380;28;20052;-79
2021/06/29 00:10:17;;;;;;;6.68;2.50;;;25.20;93.50;;;;;;5010682;28;20088;-78
2021/06/29 00:12:43;;;;;;;6.35;2.55;;;25.20;93.50;;;;;;5011538;28;20492;-78
2021/06/29 00:15:09;;;;;;;4.47;2.83;;;25.20;93.70;;;;;;5011578;28;20072;-77
2021/06/29 00:17:35;;;;;;;2.95;2.28;;;25.20;93.80;;;;;;5011336;28;20014;-77
2021/06/29 00:20:01;;;;;;;10.60;2.35;;;25.20;93.50;;;;;;5011202;28;20480;-78
2021/06/29 00:22:26;;;;;;;10.10;2.70;;;25.20;93.80;;;;;;5010972;28;20033;-78
2021/06/29 00:24:52;;;;;;;6.45;2.35;;;25.10;94.00;;;;;;5011355;28;20382;-78
2021/06/29 00:27:18;;;;;;;2.40;1.95;;;25.10;94.20;;;;;;5011194;28;20038;-77
2021/06/29 00:29:43;;;;;;;6.13;2.30;;;25.10;94.40;;;;;;5011336;28;20080;-78
2021/06/29 00:32:09;;;;;;;3.53;2.20;;;25.10;94.40;;;;;;5009694;28;20033;-78
2021/06/29 00:34:35;;;;;;;8.60;2.20;;;25.10;94.40;;;;;;5010999;28;20038;-78
2021/06/29 00:37:01;;;;;;;9.50;2.30;;;25.00;94.50;;;;;;5011586;28;20048;-78
2021/06/29 00:39:26;;;;;;;4.00;2.40;;;25.00;94.40;;;;;;5010864;28;20073;-78
2021/06/29 00:41:52;;;;;;;9.25;2.95;;;24.90;94.60;;;;;;5010526;28;20113;-77
2021/06/29 00:44:23;;;;;;;5.40;2.83;;;24.90;94.80;;;;;;5010774;28;20034;-77
2021/06/29 00:46:49;;;;;;;7.45;2.30;;;24.90;94.80;;;;;;5011289;28;20085;-78
2021/06/29 00:49:16;;;;;;;4.05;2.42;;;24.90;94.70;;;;;;5010804;28;20096;-77
2021/06/29 00:51:42;;;;;;;7.97;2.67;;;25.00;94.40;;;;;;4993484;28;20064;-77
2021/06/29 00:54:09;;;;;;;7.20;2.40;;;24.90;94.50;;;;;;5010265;28;20022;-77
2021/06/29 00:56:37;;;;;;;3.67;2.55;;;24.90;94.70;;;;;;5013188;28;20373;-78
2021/06/29 00:59:04;;;;;;;10.43;3.05;;;24.90;94.70;;;;;;5009853;28;20449;-78
2021/06/29 01:01:30;;;;;;;5.15;2.45;;;24.90;94.60;;;;;;5011602;28;20029;-78
2021/06/29 01:03:56;;;;;;;5.22;2.30;;;24.90;94.50;;;;;;5014669;28;20367;-78
2021/06/29 01:06:21;;;;;;;3.13;2.40;;;24.90;94.50;;;;;;5014187;28;20462;-78
2021/06/29 01:08:47;;;;;;;4.80;2.33;;;24.90;94.50;;;;;;5014718;28;20057;-78
2021/06/29 01:11:13;;;;;;;11.10;2.15;;;24.90;94.50;;;;;;5014661;28;20030;-77
2021/06/29 01:13:44;;;;;;;7.47;2.30;;;24.90;94.40;;;;;;5012520;28;20100;-78
2021/06/29 01:16:11;;;;;;;3.70;2.42;;;24.80;94.60;;;;;;5014581;28;20037;-78
2021/06/29 01:18:42;;;;;;;3.67;2.53;;;24.70;94.80;;;;;;5014742;28;20386;-77
2021/06/29 01:21:16;;;;;;;3.72;2.25;;;24.60;95.10;;;;;;5014658;28;20087;-78
2021/06/29 01:23:47;;;;;;;3.35;2.22;;;24.60;95.00;;;;;;5014443;28;20037;-78
2021/06/29 01:26:30;;;;;;;9.20;2.25;;;24.50;95.10;;;;;;5014617;28;20091;-78
2021/06/29 01:29:07;;;;;;;8.13;2.45;;;24.50;94.90;;;;;;5014913;28;20025;-78
2021/06/29 01:31:35;;;;;;;5.28;2.30;;;24.50;95.10;;;;;;5014648;28;20083;-77
2021/06/29 01:34:02;;;;;;;2.75;2.03;;;24.50;95.00;;;;;;5013783;28;20022;-77
2021/06/29 01:36:35;;;;;;;4.90;2.65;;;24.50;95.10;;;;;;5014554;28;20391;-77
2021/06/29 01:39:06;;;;;;;3.25;2.22;;;24.60;95.10;;;;;;5014861;28;20026;-77
2021/06/29 01:41:32;;;;;;;2.85;2.40;;;24.60;95.00;;;;;;5014265;28;20112;-77
2021/06/29 01:46:27;;;;;;;4.68;2.08;;;24.60;94.60;;;;;;5014963;28;20041;-77
2021/06/29 01:48:54;;;;;;;3.88;2.33;;;24.70;94.60;;;;;;5014937;28;20015;-77
2021/06/29 01:51:21;;;;;;;2.85;2.35;;;24.70;94.60;;;;;;5000043;28;20359;-78
2021/06/29 01:53:52;;;;;;;10.68;2.55;;;24.70;94.60;;;;;;5014664;28;20028;-78
2021/06/29 01:56:23;;;;;;;7.90;2.25;;;24.70;94.50;;;;;;5014622;28;20386;-78
2021/06/29 01:58:59;;;;;;;3.92;2.08;;;24.70;94.50;;;;;;5014481;28;20021;-78
2021/06/29 02:01:25;;;;;;;2.30;1.95;;;24.70;94.40;;;;;;5014058;28;20030;-78
2021/06/29 02:03:50;;;;;;;4.38;2.45;;;24.70;94.50;;;;;;5014459;28;20092;-77
2021/06/29 02:06:18;;;;;;;2.55;2.20;;;24.60;94.50;;;;;;5013929;28;20030;-77
2021/06/29 02:08:44;;;;;;;14.43;2.50;;;24.60;94.60;;;;;;5013847;28;20046;-78
2021/06/29 02:11:10;;;;;;;8.07;2.40;;;24.60;94.60;;;;;;5013945;28;20022;-78
2021/06/29 02:13:36;;;;;;;5.45;2.15;;;24.60;94.60;;;;;;5012825;28;20029;-78
2021/06/29 02:16:02;;;;;;;5.15;2.10;;;24.60;94.50;;;;;;5014488;28;20053;-78
2021/06/29 02:18:29;;;;;;;4.22;2.28;;;24.60;94.70;;;;;;5014371;28;20435;-78
2021/06/29 02:20:55;;;;;;;5.55;2.08;;;24.60;94.60;;;;;;5014242;28;20036;-78
2021/06/29 02:23:21;;;;;;;10.82;1.98;;;24.60;94.70;;;;;;5014210;28;20105;-77
2021/06/29 02:25:47;;;;;;;2.90;1.98;;;24.60;95.10;;;;;;5013944;28;20517;-77
2021/06/29 02:28:13;;;;;;;2.88;1.85;;;24.50;94.80;;;;;;5014288;28;20058;-78
2021/06/29 02:30:40;;;;;;;13.82;2.50;;;24.50;94.80;;;;;;5013979;28;20026;-78
2021/06/29 02:33:06;;;;;;;4.15;2.47;;;24.60;94.80;;;;;;5013140;28;20529;-78
2021/06/29 02:35:32;;;;;;;2.70;1.90;;;24.70;94.70;;;;;;5011885;28;20054;-77
2021/06/29 02:37:57;;;;;;;4.00;1.95;;;24.70;94.60;;;;;;5012449;28;20029;-78
2021/06/29 02:40:23;;;;;;;4.32;2.15;;;24.70;94.70;;;;;;5013463;28;20425;-78
2021/06/29 02:42:49;;;;;;;2.85;1.92;;;24.70;94.50;;;;;;5013341;28;20022;-77
2021/06/29 02:45:19;;;;;;;6.50;2.33;;;24.70;94.50;;;;;;5013375;28;20034;-77
2021/06/29 02:47:46;;;;;;;6.57;1.95;;;24.60;94.60;;;;;;5012883;28;20108;-78
2021/06/29 02:50:13;;;;;;;7.32;1.83;;;24.60;94.60;;;;;;5012940;28;20048;-79
2021/06/29 02:52:39;;;;;;;3.83;2.03;;;24.50;94.60;;;;;;5010858;28;20133;-78
2021/06/29 02:55:08;;;;;;;5.72;2.47;;;24.50;94.60;;;;;;5012867;28;20498;-77
2021/06/29 02:57:34;;;;;;;5.65;2.92;;;24.50;94.50;;;;;;5012715;28;20040;-77
2021/06/29 03:00:00;;;;;;;6.78;2.17;;;24.50;94.60;;;;;;5012922;28;20030;-78
2021/06/29 03:02:26;;;;;;;3.08;2.45;;;24.50;94.50;;;;;;5012744;28;20033;-78
2021/06/29 03:04:52;;;;;;;2.90;1.67;;;24.40;94.70;;;;;;5012693;28;20101;-77
2021/06/29 03:07:17;;;;;;;4.28;1.98;;;24.50;94.70;;;;;;5011434;28;20372;-76
2021/06/29 03:09:43;;;;;;;5.80;2.45;;;24.40;94.70;;;;;;5012370;28;20040;-77
2021/06/29 03:12:09;;;;;;;4.43;2.55;;;24.40;94.80;;;;;;5012615;28;20035;-77
2021/06/29 03:14:37;;;;;;;6.32;2.58;;;24.40;94.90;;;;;;5012948;28;20525;-76
2021/06/29 03:17:03;;;;;;;7.13;2.47;;;24.40;95.20;;;;;;5012353;28;20030;-78
2021/06/29 03:19:32;;;;;;;3.35;2.13;;;24.40;95.30;;;;;;5013360;28;20042;-77
2021/06/29 03:21:59;;;;;;;7.65;2.45;;;24.40;95.30;;;;;;5012891;28;20028;-78
2021/06/29 03:24:26;;;;;;;3.80;2.30;;;24.50;95.30;;;;;;5013118;28;20034;-78
2021/06/29 03:26:51;;;;;;;8.27;2.38;;;24.50;95.30;;;;;;5012826;28;20018;-78
2021/06/29 03:29:17;;;;;;;9.98;2.50;;;24.60;95.20;;;;;;5013451;28;20032;-77
2021/06/29 03:31:43;;;;;;;7.18;2.50;;;24.60;95.20;;;;;;5012945;28;20034;-77
2021/06/29 03:34:09;;;;;;;8.38;2.20;;;24.70;95.20;;;;;;5012696;28;20026;-77
2021/06/29 03:36:35;;;;;;;4.32;2.10;;;24.70;95.00;;;;;;5013971;28;20037;-77
2021/06/29 03:39:00;;;;;;;2.95;2.15;;;24.80;95.00;;;;;;5012526;28;20030;-77
2021/06/29 03:41:26;;;;;;;9.70;2.17;;;24.80;95.10;;;;;;4995561;28;20056;-77
2021/06/29 03:43:52;;;;;;;2.80;2.10;;;24.80;95.10;;;;;;5012914;28;20160;-78
2021/06/29 03:46:18;;;;;;;7.63;2.15;;;24.80;95.10;;;;;;5012741;28;20022;-78
2021/06/29 03:48:44;;;;;;;8.70;2.70;;;24.90;95.40;;;;;;5012854;28;20132;-78
2021/06/29 03:51:10;;;;;;;3.78;2.40;;;25.00;95.00;;;;;;5012973;28;20017;-78
2021/06/29 03:53:35;;;;;;;9.00;2.78;;;25.00;94.90;;;;;;5012912;28;20034;-78
2021/06/29 03:56:01;;;;;;;6.03;2.85;;;25.00;94.90;;;;;;5010239;28;20076;-78
2021/06/29 03:58:28;;;;;;;10.07;2.40;;;25.00;94.90;;;;;;5020294;28;20501;-78
2021/06/29 04:00:53;;;;;;;14.85;2.28;;;25.10;94.90;;;;;;5012692;28;20088;-77
2021/06/29 04:03:20;;;;;;;5.43;2.20;;;25.10;94.80;;;;;;5011384;28;20018;-78
2021/06/29 04:05:45;;;;;;;2.42;2.10;;;25.20;94.70;;;;;;5012287;28;20034;-77
2021/06/29 04:08:11;;;;;;;9.93;2.63;;;25.40;94.50;;;;;;5012321;28;20096;-78
2021/06/29 04:10:37;;;;;;;11.27;2.65;;;25.50;94.30;;;;;;5012123;28;20063;-78
2021/06/29 04:13:03;;;;;;;5.47;2.25;;;25.60;94.30;;;;;;5012480;28;20113;-78
2021/06/29 04:15:29;;;;;;;6.85;3.15;;;25.70;94.00;;;;;;5012235;28;20038;-77
2021/06/29 04:17:55;;;;;;;9.00;2.50;;;25.80;94.00;;;;;;5015896;28;20061;-77
2021/06/29 04:20:20;;;;;;;5.75;2.70;;;25.90;93.80;;;;;;5011721;28;20109;-78
2021/06/29 04:22:46;;;;;;;5.50;2.30;;;26.00;93.90;;;;;;5011563;28;20470;-77
2021/06/29 04:25:12;;;;;;;7.30;2.63;;;26.10;93.80;;;;;;5012257;28;20466;-78
2021/06/29 04:27:38;;;;;;;7.30;2.25;;;26.30;93.40;;;;;;5012404;28;20481;-78
2021/06/29 04:30:08;;;;;;;9.55;2.60;;;26.50;93.20;;;;;;5012620;28;20149;-78
2021/06/29 04:32:34;;;;;;;6.95;2.55;;;26.60;92.90;;;;;;5012070;28;20374;-78
2021/06/29 04:35:00;;;;;;;4.47;2.80;;;26.80;92.70;;;;;;5011789;28;20033;-78
2021/06/29 04:37:25;;;;;;;8.63;2.20;;;27.10;92.20;;;;;;5010678;28;20029;-78
2021/06/29 04:39:51;;;;;;;11.98;2.60;;;27.50;92.00;;;;;;5011524;28;20533;-78
2021/06/29 04:42:17;;;;;;;7.32;2.38;;;28.10;91.20;;;;;;5011288;28;20414;-78
2021/06/29 04:44:42;;;;;;;12.23;2.25;;;28.70;90.50;;;;;;5011731;28;20030;-77
2021/06/29 04:47:09;;;;;;;18.30;2.17;;;29.50;89.70;;;;;;5011346;28;20026;-78
2021/06/29 04:49:37;;;;;;;11.70;2.20;;;30.30;88.00;;;;;;5011993;28;20714;-78
2021/06/29 04:52:03;;;;;;;5.57;2.20;;;31.00;85.90;;;;;;4994135;28;20041;-78
2021/06/29 04:54:29;;;;;;;6.32;1.88;;;31.60;84.70;;;;;;5011775;28;20022;-78
2021/06/29 04:56:55;;;;;;;11.02;2.05;;;32.10;83.40;;;;;;4995251;28;20056;-79
2021/06/29 04:59:20;;;;;;;14.85;2.40;;;32.80;82.00;;;;;;5010993;28;20117;-78
2021/06/29 05:01:46;;;;;;;7.68;2.00;;;33.20;80.70;;;;;;5011603;28;20463;-79
2021/06/29 05:04:12;;;;;;;13.48;2.08;;;33.70;79.90;;;;;;5011592;28;20021;-79
2021/06/29 05:06:37;;;;;;;7.13;1.73;;;34.10;78.00;;;;;;5011410;28;20390;-80
2021/06/29 05:09:03;;;;;;;3.97;1.80;;;34.40;77.60;;;;;;5009887;28;20046;-78
2021/06/29 05:11:29;;;;;;;12.55;1.98;;;34.60;75.60;;;;;;5010417;28;20121;-78
2021/06/29 05:13:55;;;;;;;20.83;1.88;;;34.70;75.80;;;;;;5010761;28;20073;-79
2021/06/29 05:16:21;;;;;;;14.65;1.90;;;34.70;75.70;;;;;;5009965;28;20379;-79
2021/06/29 05:18:47;;;;;;;9.77;1.60;;;35.20;74.50;;;;;;5011482;28;20037;-78
2021/06/29 05:21:13;;;;;;;7.68;1.73;;;35.80;73.70;;;;;;5011071;28;20449;-79
2021/06/29 05:23:38;;;;;;;6.63;1.92;;;36.20;72.50;;;;;;5012041;28;20022;-79
2021/06/29 05:26:04;;;;;;;10.00;1.90;;;36.50;72.00;;;;;;5012232;28;20069;-79
2021/06/29 05:28:30;;;;;;;5.78;1.48;;;36.80;71.50;;;;;;5010712;28;20018;-80
2021/06/29 05:30:55;;;;;;;3.35;1.60;;;37.30;71.20;;;;;;5011601;28;20022;-77
2021/06/29 05:33:21;;;;;;;6.38;1.73;;;37.90;69.80;;;;;;5012096;28;20421;-77
2021/06/29 05:35:47;;;;;;;8.00;1.60;;;38.20;69.10;;;;;;5010506;28;20538;-77
2021/06/29 05:38:14;;;;;;;7.78;1.50;;;38.40;68.60;;;;;;5011131;28;20018;-76
2021/06/29 05:40:39;;;;;;;8.43;1.60;;;38.60;68.10;;;;;;5011071;28;20474;-77
2021/06/29 05:43:05;;;;;;;8.48;2.28;;;38.80;67.70;;;;;;5011136;28;20028;-76
2021/06/29 05:45:31;;;;;;;7.35;1.70;;;38.00;67.80;;;;;;5011249;28;20032;-79
2021/06/29 05:47:58;;;;;;;5.18;1.40;;;36.40;70.00;;;;;;5010031;28;20414;-77
2021/06/29 05:50:24;;;;;;;10.10;1.63;;;36.40;70.60;;;;;;5014437;28;20022;-76
2021/06/29 05:52:50;;;;;;;7.00;1.60;;;37.30;69.50;;;;;;5013798;28;20072;-78
2021/06/29 05:55:16;;;;;;;3.95;1.63;;;38.10;66.90;;;;;;5015058;28;20414;-76
2021/06/29 05:57:42;;;;;;;4.03;1.20;;;38.10;66.20;;;;;;5014914;28;20034;-76
2021/06/29 06:00:14;;;;;;;11.70;2.08;;;38.60;65.50;;;;;;5014443;28;20041;-76
2021/06/29 06:02:40;;;;;;;4.63;1.60;;;39.40;64.80;;;;;;5012801;28;20053;-78
2021/06/29 06:05:10;;;;;;;7.35;1.50;;;39.70;63.10;;;;;;5014069;28;20058;-78
2021/06/29 06:07:36;;;;;;;5.87;1.80;;;40.30;62.60;;;;;;5013116;28;20042;-78
2021/06/29 06:10:04;;;;;;;5.50;1.00;;;40.50;60.50;;;;;;5014415;28;20490;-78
2021/06/29 06:12:29;;;;;;;9.70;1.23;;;40.70;60.10;;;;;;5014541;28;20022;-77
2021/06/29 06:14:56;;;;;;;7.43;1.25;;;40.90;59.40;;;;;;5014497;28;20475;-76
2021/06/29 06:17:22;;;;;;;6.32;1.20;;;41.40;59.00;;;;;;5009569;28;20045;-77
2021/06/29 06:19:47;;;;;;;3.08;1.85;;;42.10;58.90;;;;;;4996146;28;20080;-77
2021/06/29 06:22:13;;;;;;;2.70;0.95;;;43.00;58.60;;;;;;5013046;28;20034;-77
2021/06/29 06:24:39;;;;;;;3.10;0.88;;;43.40;57.50;;;;;;5013959;28;20026;-78
2021/06/29 06:27:08;;;;;;;2.75;0.75;;;43.40;56.90;;;;;;5014104;28;20021;-76
2021/06/29 06:29:34;;;;;;;3.22;0.98;;;43.70;55.40;;;;;;5014749;28;20053;-76
2021/06/29 06:31:59;;;;;;;2.55;0.80;;;44.20;55.40;;;;;;5014541;28;20462;-78
2021/06/29 06:34:25;;;;;;;1.52;0.70;;;44.80;55.30;;;;;;5014418;28;20026;-77
2021/06/29 06:36:50;;;;;;;1.25;0.82;;;44.60;54.20;;;;;;5013801;28;20034;-76
2021/06/29 06:39:16;;;;;;;5.05;1.00;;;44.70;53.30;;;;;;5014255;28;20022;-79
2021/06/29 06:41:42;;;;;;;4.72;0.90;;;44.40;54.20;;;;;;5012223;28;20038;-79
2021/06/29 06:44:08;;;;;;;5.68;1.00;;;44.30;53.80;;;;;;5012229;28;20030;-74
2021/06/29 06:46:33;;;;;;;4.05;1.02;;;44.80;54.80;;;;;;5012222;28;20034;-75
2021/06/29 06:48:59;;;;;;;19.83;1.05;;;44.70;53.30;;;;;;5012258;28;20018;-74
2021/06/29 06:51:25;;;;;;;7.15;1.23;;;44.60;53.50;;;;;;5009871;28;20041;-73
2021/06/29 06:53:50;;;;;;;8.73;1.70;;;44.40;53.30;;;;;;5012447;28;20022;-74
2021/06/29 06:56:17;;;;;;;6.43;1.30;;;44.20;54.10;;;;;;5012268;28;20022;-74
2021/06/29 06:58:44;;;;;;;3.00;0.95;;;43.20;53.10;;;;;;5012307;28;20018;-75
2021/06/29 07:01:11;;;;;;;9.18;1.02;;;41.30;55.00;;;;;;5008596;28;20072;-74
2021/06/29 07:03:37;;;;;;;10.38;1.58;;;39.60;55.30;;;;;;5011829;28;20018;-74
2021/06/29 07:06:05;;;;;;;3.38;1.40;;;37.80;57.60;;;;;;5011920;28;20026;-74
2021/06/29 07:08:31;;;;;;;3.00;1.27;;;36.60;59.70;;;;;;5012219;28;20546;-74
2021/06/29 07:10:58;;;;;;;8.38;1.40;;;35.80;60.30;;;;;;5011987;28;20054;-74
2021/06/29 07:13:25;;;;;;;9.15;1.50;;;35.10;62.10;;;;;;5011651;28;20467;-74
2021/06/29 07:15:50;;;;;;;3.38;1.27;;;34.90;63.10;;;;;;5011832;28;20383;-73
2021/06/29 07:18:18;;;;;;;8.43;1.48;;;34.70;64.00;;;;;;5012414;28;20045;-75
2021/06/29 07:20:44;;;;;;;8.10;1.80;;;34.70;64.00;;;;;;5007751;28;20040;-74
2021/06/29 07:23:10;;;;;;;11.07;2.25;;;34.40;64.40;;;;;;5011969;28;20474;-74
2021/06/29 07:25:36;;;;;;;3.33;1.50;;;34.10;65.40;;;;;;5012279;28;20026;-74
2021/06/29 07:28:03;;;;;;;3.33;1.52;;;33.80;66.50;;;;;;5011746;28;20025;-73
2021/06/29 07:30:28;;;;;;;8.50;1.70;;;33.60;66.30;;;;;;5013475;28;20064;-73
2021/06/29 07:32:56;;;;;;;9.55;1.88;;;33.60;66.30;;;;;;5012984;28;20053;-72
2021/06/29 07:35:22;;;;;;;6.30;1.73;;;33.50;66.40;;;;;;5012369;28;20018;-74
2021/06/29 07:37:48;;;;;;;30.75;3.65;;;33.40;66.90;;;;;;5012052;28;20048;-74
2021/06/29 07:40:14;;;;;;;12.68;2.85;;;33.50;67.00;;;;;;5012026;28;20522;-73
2021/06/29 07:42:40;;;;;;;28.38;2.90;;;33.80;66.50;;;;;;5011875;28;20048;-74
2021/06/29 07:45:07;;;;;;;10.00;1.52;;;33.70;66.70;;;;;;5012397;28;20029;-74
2021/06/29 07:47:33;;;;;;;5.47;1.60;;;33.80;66.20;;;;;;5012526;28;20589;-75
2021/06/29 07:50:00;;;;;;;1.83;1.30;;;33.80;65.20;;;;;;5010367;28;20550;-75
2021/06/29 07:52:25;;;;;;;2.72;1.50;;;33.50;65.30;;;;;;5008694;28;20139;-74
2021/06/29 07:54:51;;;;;;;2.92;1.58;;;33.20;65.10;;;;;;5010162;28;20084;-73
2021/06/29 07:57:17;;;;;;;7.93;2.70;;;32.90;66.60;;;;;;5011142;28;20014;-74
2021/06/29 07:59:43;;;;;;;6.10;1.50;;;33.00;67.30;;;;;;5011122;28;20052;-74
2021/06/29 08:02:09;;;;;;;3.95;1.50;;;33.00;67.20;;;;;;4993332;28;20029;-73
2021/06/29 08:04:36;;;;;;;12.45;1.55;;;33.10;67.80;;;;;;5010976;28;20485;-74
2021/06/29 08:07:02;;;;;;;8.98;1.50;;;33.30;67.60;;;;;;5010148;28;20030;-73
2021/06/29 08:09:28;;;;;;;6.68;1.80;;;33.30;66.80;;;;;;5009868;28;20050;-74
2021/06/29 08:11:54;;;;;;;15.07;2.20;;;33.40;67.70;;;;;;5010200;28;20431;-75
2021/06/29 08:14:19;;;;;;;4.03;1.80;;;33.60;67.90;;;;;;5009987;28;20021;-74
2021/06/29 08:16:46;;;;;;;5.85;1.48;;;33.70;68.30;;;;;;5010215;28;20541;-76
2021/06/29 08:19:12;;;;;;;6.25;1.38;;;33.80;68.50;;;;;;5010273;28;20577;-73
2021/06/29 08:21:37;;;;;;;16.80;1.80;;;33.90;68.60;;;;;;5010341;28;20025;-74
2021/06/29 08:24:04;;;;;;;8.73;2.05;;;34.00;68.90;;;;;;5010620;28;20068;-75
2021/06/29 08:26:30;;;;;;;8.00;1.33;;;33.90;69.30;;;;;;5011229;28;20044;-75
2021/06/29 08:28:55;;;;;;;4.40;1.55;;;33.90;69.70;;;;;;5011533;28;20109;-76
2021/06/29 08:31:22;;;;;;;3.28;1.80;;;33.80;70.30;;;;;;5010994;28;20050;-76
2021/06/29 08:33:48;;;;;;;6.35;1.65;;;33.80;70.30;;;;;;5011010;28;20028;-75
2021/06/29 08:36:16;;;;;;;7.85;2.00;;;34.00;70.50;;;;;;5011102;28;20502;-75
2021/06/29 08:38:41;;;;;;;5.32;1.50;;;34.10;69.90;;;;;;5010812;28;20033;-76
2021/06/29 08:41:07;;;;;;;8.68;1.83;;;34.20;70.60;;;;;;5010260;28;20026;-77
2021/06/29 08:43:34;;;;;;;8.93;2.22;;;34.30;70.70;;;;;;5010426;28;20097;-77
2021/06/29 08:46:01;;;;;;;9.55;1.90;;;34.30;70.60;;;;;;5011151;28;20022;-75
2021/06/29 08:48:27;;;;;;;7.65;1.90;;;34.20;71.00;;;;;;5003916;28;20026;-76
2021/06/29 08:50:53;;;;;;;6.32;2.05;;;34.20;71.40;;;;;;5009322;28;20036;-76
2021/06/29 08:53:18;;;;;;;12.00;2.38;;;34.10;71.40;;;;;;5010979;28;20036;-76
2021/06/29 08:55:47;;;;;;;29.15;2.00;;;33.80;72.20;;;;;;5010854;28;20025;-75
2021/06/29 08:58:17;;;;;;;8.13;2.10;;;33.60;72.30;;;;;;5011477;28;20517;-75
2021/06/29 09:00:43;;;;;;;16.02;2.33;;;33.40;73.20;;;;;;5010550;28;20038;-76
2021/06/29 09:03:09;;;;;;;8.88;2.28;;;33.40;73.50;;;;;;5011200;28;20487;-76
2021/06/29 09:05:34;;;;;;;12.52;2.63;;;33.60;73.70;;;;;;5010188;28;20550;-77
2021/06/29 09:08:07;;;;;;;8.05;1.63;;;33.70;73.90;;;;;;5010718;28;20103;-76
2021/06/29 09:10:35;;;;;;;8.02;1.58;;;33.70;73.70;;;;;;5010876;28;20037;-76
2021/06/29 09:13:02;;;;;;;9.63;2.33;;;33.80;73.80;;;;;;5010607;28;20049;-76
2021/06/29 09:15:38;;;;;;;12.45;2.53;;;33.80;74.20;;;;;;5010499;28;20025;-77
2021/06/29 09:18:08;;;;;;;13.13;2.25;;;33.80;73.80;;;;;;5008674;28;20076;-75
2021/06/29 09:20:35;;;;;;;10.57;1.97;;;33.60;75.60;;;;;;5007343;28;20486;-76
2021/06/29 09:23:11;;;;;;;14.38;2.17;;;33.40;75.50;;;;;;5012012;28;20018;-77
2021/06/29 09:25:40;;;;;;;7.82;2.08;;;33.50;75.90;;;;;;5014001;28;20091;-76
2021/06/29 09:28:07;;;;;;;21.65;2.47;;;33.60;75.90;;;;;;5014473;28;20022;-76
2021/06/29 09:30:38;;;;;;;17.80;2.00;;;33.80;76.20;;;;;;5014299;28;20083;-76
2021/06/29 09:33:11;;;;;;;12.07;2.43;;;33.70;76.20;;;;;;5014520;28;21472;-76
2021/06/29 09:35:40;;;;;;;9.38;2.70;;;33.70;76.00;;;;;;5013985;28;20022;-77
2021/06/29 09:38:07;;;;;;;15.30;2.42;;;33.60;75.60;;;;;;5013041;28;20053;-74
2021/06/29 09:40:35;;;;;;;20.35;3.13;;;33.50;76.50;;;;;;5014136;28;20045;-77
2021/06/29 09:43:10;;;;;;;14.18;2.25;;;33.70;76.40;;;;;;5013059;28;20075;-77
2021/06/29 09:45:41;;;;;;;12.55;3.10;;;33.70;76.80;;;;;;5014109;28;20037;-78
2021/06/29 09:48:10;;;;;;;33.87;2.93;;;33.70;76.50;;;;;;5014050;28;20466;-77
2021/06/29 09:50:38;;;;;;;9.93;2.47;;;33.70;77.20;;;;;;5013014;28;20028;-77
2021/06/29 09:53:23;;;;;;;24.25;3.30;;;33.90;77.30;;;;;;5012775;28;20022;-76
2021/06/29 09:55:54;;;;;;;14.85;2.50;;;34.00;77.10;;;;;;5011242;28;20018;-76
2021/06/29 09:58:20;;;;;;;17.98;3.08;;;34.20;77.20;;;;;;5013278;28;20072;-76
2021/06/29 10:00:52;;;;;;;10.40;2.42;;;34.20;77.50;;;;;;5012196;28;20483;-77
2021/06/29 10:03:27;;;;;;;23.25;3.45;;;34.30;77.70;;;;;;5012755;28;20018;-76
2021/06/29 10:05:55;;;;;;;32.22;3.60;;;34.40;77.50;;;;;;5012776;28;20497;-76
2021/06/29 10:08:25;;;;;;;10.13;3.03;;;34.50;78.10;;;;;;5013106;28;20054;-76
2021/06/29 10:11:02;;;;;;;23.70;3.60;;;34.60;78.70;;;;;;5011364;28;20037;-77
2021/06/29 10:13:34;;;;;;;19.58;3.53;;;34.40;78.60;;;;;;5010355;28;20017;-77
2021/06/29 10:16:00;;;;;;;15.35;2.40;;;34.40;79.70;;;;;;5014001;28;20053;-77
2021/06/29 10:18:26;;;;;;;8.52;2.25;;;34.50;80.10;;;;;;5010250;28;20470;-77
2021/06/29 10:20:56;;;;;;;6.05;2.15;;;34.50;80.70;;;;;;5013634;28;20095;-78
2021/06/29 10:23:22;;;;;;;17.60;2.33;;;34.60;80.30;;;;;;5012542;28;20462;-77
2021/06/29 10:25:49;;;;;;;10.77;2.80;;;34.60;79.60;;;;;;5012113;28;20501;-77
2021/06/29 10:28:16;;;;;;;8.43;1.45;;;34.70;79.80;;;;;;5010773;28;20079;-75
2021/06/29 10:30:42;;;;;;;4.32;1.70;;;34.80;80.60;;;;;;5011969;28;20033;-77
2021/06/29 10:33:08;;;;;;;13.02;1.80;;;34.80;80.50;;;;;;5012312;28;20018;-76
2021/06/29 10:35:37;;;;;;;13.00;1.98;;;34.80;80.60;;;;;;5012245;28;20433;-78
2021/06/29 10:38:04;;;;;;;4.82;1.70;;;34.80;80.50;;;;;;5012845;28;20096;-77
2021/06/29 10:40:31;;;;;;;7.50;1.88;;;34.90;81.50;;;;;;5012893;28;20034;-77
2021/06/29 10:42:59;;;;;;;11.93;2.25;;;35.00;82.10;;;;;;5013513;28;20018;-76
2021/06/29 10:45:52;;;;;;;17.23;2.10;;;35.10;83.00;;;;;;5013079;28;20036;-77
2021/06/29 10:48:25;;;;;;;6.20;1.73;;;35.00;82.90;;;;;;4994977;28;20034;-76
2021/06/29 10:50:53;;;;;;;10.60;2.33;;;35.00;83.70;;;;;;5011746;28;20030;-76
2021/06/29 10:53:40;;;;;;;7.30;1.98;;;35.10;83.80;;;;;;5012969;28;20356;-75
2021/06/29 10:56:20;;;;;;;17.52;2.08;;;35.20;84.10;;;;;;4997138;28;20037;-76
2021/06/29 10:58:48;;;;;;;8.85;2.65;;;35.20;83.60;;;;;;5012797;28;20387;-77
2021/06/29 11:01:34;;;;;;;8.25;2.35;;;35.30;83.30;;;;;;5011421;28;20438;-78
2021/06/29 11:04:03;;;;;;;17.02;2.70;;;35.40;83.00;;;;;;5011612;28;20018;-78
2021/06/29 11:06:44;;;;;;;6.13;2.00;;;35.40;82.10;;;;;;5013507;28;20486;-77
2021/06/29 11:09:21;;;;;;;8.80;2.45;;;35.30;83.40;;;;;;5009830;28;20538;-77
2021/06/29 11:12:25;;;;;;;13.82;2.45;;;35.20;83.50;;;;;;5011305;28;20030;-76
2021/06/29 11:14:54;;;;;;;8.07;2.45;;;35.30;84.10;;;;;;5011307;28;20054;-75
2021/06/29 11:17:26;;;;;;;14.15;2.65;;;35.20;84.50;;;;;;5011770;28;20049;-77
2021/06/29 11:20:00;;;;;;;12.25;2.45;;;35.20;84.60;;;;;;5011334;28;20025;-76
2021/06/29 11:22:52;;;;;;;18.00;3.17;;;35.20;84.90;;;;;;5011432;28;20042;-77
2021/06/29 11:25:33;;;;;;;10.35;2.80;;;35.10;85.40;;;;;;5009609;28;20033;-76
2021/06/29 11:28:11;;;;;;;13.05;2.80;;;35.00;85.70;;;;;;5010849;28;20029;-76
2021/06/29 11:31:02;;;;;;;9.98;2.25;;;35.00;86.30;;;;;;5010437;28;20062;-77
2021/06/29 11:33:40;;;;;;;19.02;2.55;;;34.90;85.90;;;;;;5002880;28;20034;-77
2021/06/29 11:36:26;;;;;;;12.98;2.53;;;34.80;86.80;;;;;;5010156;28;20057;-76
2021/06/29 11:39:00;;;;;;;14.00;3.42;;;34.80;87.80;;;;;;4997476;28;20068;-76
2021/06/29 11:41:31;;;;;;;12.90;2.70;;;34.80;88.30;;;;;;5007789;28;20533;-76
2021/06/29 11:44:17;;;;;;;;;;;34.70;89.00;;;;;;5011139;28;20022;-76
2021/06/29 11:46:53;;;;;;;16.00;3.33;;;34.70;90.30;;;;;;5009255;28;19933;-75
2021/06/29 11:49:41;;;;;;;20.38;3.83;;;34.60;90.10;;;;;;5010327;28;20093;-76
2021/06/29 11:52:41;;;;;;;26.77;3.90;;;34.70;90.10;;;;;;5012387;28;20050;-77
2021/06/29 11:55:15;;;;;;;30.63;3.90;;;34.70;89.40;;;;;;5008851;28;20030;-76
2021/06/29 11:57:49;;;;;;;35.97;4.90;;;34.60;89.60;;;;;;5012159;28;20064;-76
2021/06/29 12:00:31;;;;;;;23.67;4.13;;;34.40;89.20;;;;;;5010639;28;20026;-76
2021/06/29 12:03:07;;;;;;;31.80;4.13;;;34.40;88.30;;;;;;5010464;28;20025;-76
2021/06/29 12:05:35;;;;;;;28.45;4.10;;;34.40;87.20;;;;;;5010382;28;20092;-76
2021/06/29 12:08:06;;;;;;;31.77;4.63;;;34.40;86.00;;;;;;5010255;28;20123;-75
2021/06/29 12:10:42;;;;;;;35.40;6.57;;;34.30;86.40;;;;;;5011606;28;20037;-76
2021/06/29 12:13:19;;;;;;;25.98;4.65;;;34.30;86.30;;;;;;5011299;28;20478;-76
2021/06/29 12:15:52;;;;;;;32.75;5.68;;;34.40;88.60;;;;;;5011646;28;20040;-75
2021/06/29 12:18:23;;;;;;;38.75;5.20;;;34.40;88.10;;;;;;5011154;28;20018;-76
2021/06/29 12:20:53;;;;;;;36.90;5.50;;;34.50;89.10;;;;;;5011366;28;20030;-76
2021/06/29 12:23:23;;;;;;;51.53;6.28;;;34.50;91.20;;;;;;5010718;28;20022;-75
2021/06/29 12:25:54;;;;;;;42.17;6.63;;;34.40;92.10;;;;;;5007715;28;20425;-75
2021/06/29 12:28:22;;;;;;;47.97;6.93;;;34.30;92.60;;;;;;5010302;28;20026;-76
2021/06/29 12:30:49;;;;;;;34.58;5.55;;;34.20;92.70;;;;;;5008601;28;20497;-77
2021/06/29 12:33:23;;;;;;;41.85;7.80;;;34.20;91.70;;;;;;5009551;28;20060;-76
2021/06/29 12:35:55;;;;;;;43.05;5.78;;;34.10;90.80;;;;;;5009768;28;20037;-76
2021/06/29 12:38:26;;;;;;;27.73;5.32;;;34.10;91.80;;;;;;5007377;28;20030;-76
2021/06/29 12:40:55;;;;;;;33.85;5.97;;;34.10;92.40;;;;;;5003268;28;20510;-76
2021/06/29 12:43:27;;;;;;;30.52;4.50;;;34.10;93.70;;;;;;5009387;28;20033;-75
2021/06/29 12:45:53;;;;;;;25.00;4.20;;;34.10;93.00;;;;;;5009071;28;20136;-76
2021/06/29 12:48:19;;;;;;;27.38;5.60;;;33.90;93.00;;;;;;5010416;28;20069;-74
2021/06/29 12:51:02;;;;;;;28.95;4.65;;;33.70;93.20;;;;;;4992829;28;20410;-76